createdAt,value
2017-09-22T00:00:56.565Z,0
2017-09-22T00:01:57.116Z,0
2017-09-22T00:02:56.246Z,0
2017-09-22T00:03:56.550Z,0
2017-09-22T00:04:56.859Z,0
2017-09-22T00:05:56.860Z,0
2017-09-22T00:06:56.547Z,0
2017-09-22T00:07:56.850Z,0
2017-09-22T00:08:56.536Z,0
2017-09-22T00:09:56.539Z,0
2017-09-22T00:10:56.538Z,0
2017-09-22T00:11:56.844Z,0
2017-09-22T00:12:56.843Z,0
2017-09-22T00:13:56.537Z,0
2017-09-22T00:14:56.835Z,0
2017-09-22T00:15:56.510Z,0
2017-09-22T00:16:56.507Z,0
2017-09-22T00:17:56.527Z,0
2017-09-22T00:18:56.513Z,0
2017-09-22T00:19:56.203Z,0
2017-09-22T00:20:56.806Z,0
2017-09-22T00:21:56.184Z,0
2017-09-22T00:22:56.807Z,0
2017-09-22T00:23:55.876Z,0
2017-09-22T00:24:56.797Z,0
2017-09-22T00:25:56.799Z,0
2017-09-22T00:26:56.498Z,0
2017-09-22T00:27:56.488Z,0
2017-09-22T00:28:56.177Z,0
2017-09-22T00:29:56.478Z,0
2017-09-22T00:30:56.158Z,0
2017-09-22T00:44:41.322Z,0
2017-09-22T00:45:17.441Z,0
2017-09-22T00:46:16.483Z,0
2017-09-22T00:47:16.483Z,0
2017-09-22T00:48:16.781Z,0
2017-09-22T00:49:17.086Z,0
2017-09-22T00:50:18.274Z,0
2017-09-22T00:51:16.773Z,0
2017-09-22T00:52:16.767Z,0
2017-09-22T00:53:17.066Z,0
2017-09-22T00:54:17.123Z,0
2017-09-22T00:55:17.846Z,0
2017-09-22T00:56:17.104Z,0
2017-09-22T00:57:16.438Z,0
2017-09-22T00:58:17.053Z,0
2017-09-22T00:59:16.436Z,0
2017-09-22T01:00:18.657Z,0
2017-09-22T01:01:16.734Z,0
2017-09-22T01:02:16.424Z,0
2017-09-22T01:03:16.729Z,0
2017-09-22T01:04:17.029Z,0
2017-09-22T01:05:18.642Z,0
2017-09-22T01:06:16.731Z,0
2017-09-22T01:07:16.404Z,0
2017-09-22T01:08:16.733Z,0
2017-09-22T01:09:16.707Z,0
2017-09-22T01:10:17.770Z,0
2017-09-22T01:11:16.698Z,0
2017-09-22T01:12:16.744Z,0
2017-09-22T01:13:17.019Z,0
2017-09-22T01:14:16.999Z,0
2017-09-22T01:15:17.749Z,0
2017-09-22T01:16:16.394Z,0
2017-09-22T01:17:16.991Z,0
2017-09-22T01:18:16.985Z,0
2017-09-22T01:19:16.366Z,0
2017-09-22T01:20:17.596Z,0
2017-09-22T01:21:16.677Z,0
2017-09-22T01:22:16.982Z,0
2017-09-22T01:23:16.357Z,0
2017-09-22T01:24:16.660Z,0
2017-09-22T01:25:18.278Z,0
2017-09-22T01:26:16.660Z,0
2017-09-22T01:27:16.357Z,0
2017-09-22T01:28:16.340Z,0
2017-09-22T01:29:16.643Z,0
2017-09-22T01:30:22.706Z,0
2017-09-22T01:31:16.722Z,0
2017-09-22T01:32:16.341Z,0
2017-09-22T01:33:16.629Z,0
2017-09-22T01:34:16.954Z,0
2017-09-22T01:35:17.611Z,0
2017-09-22T01:36:16.622Z,0
2017-09-22T01:37:16.922Z,0
2017-09-22T01:38:16.310Z,0
2017-09-22T01:39:16.605Z,0
2017-09-22T01:40:18.097Z,0
2017-09-22T01:41:16.904Z,0
2017-09-22T01:42:16.900Z,0
2017-09-22T01:43:16.298Z,0
2017-09-22T01:44:16.897Z,0
2017-09-22T01:45:17.595Z,0
2017-09-22T01:46:16.887Z,0
2017-09-22T01:47:16.271Z,0
2017-09-22T01:48:16.263Z,0
2017-09-22T01:49:16.572Z,0
2017-09-22T01:50:17.917Z,0
2017-09-22T01:51:16.264Z,0
2017-09-22T01:52:16.877Z,0
2017-09-22T01:53:15.938Z,0
2017-09-22T01:54:16.752Z,0
2017-09-22T01:55:17.925Z,0
2017-09-22T01:56:16.543Z,0
2017-09-22T01:57:16.241Z,0
2017-09-22T01:58:16.540Z,0
2017-09-22T01:59:16.536Z,0
2017-09-22T02:00:18.052Z,0
2017-09-22T02:01:17.585Z,0
2017-09-22T02:02:16.569Z,0
2017-09-22T02:03:16.834Z,0
2017-09-22T02:04:16.527Z,0
2017-09-22T02:05:17.444Z,0
2017-09-22T02:06:16.847Z,0
2017-09-22T02:07:16.894Z,0
2017-09-22T02:08:16.808Z,0
2017-09-22T02:09:16.505Z,0
2017-09-22T02:10:18.321Z,0
2017-09-22T02:11:15.868Z,0
2017-09-22T02:12:16.482Z,0
2017-09-22T02:13:16.484Z,0
2017-09-22T02:14:16.478Z,0
2017-09-22T02:15:17.898Z,0
2017-09-22T02:16:16.474Z,0
2017-09-22T02:17:16.467Z,0
2017-09-22T02:18:16.465Z,0
2017-09-22T02:19:16.764Z,0
2017-09-22T02:20:18.048Z,0
2017-09-22T02:21:16.446Z,0
2017-09-22T02:22:16.450Z,0
2017-09-22T02:23:16.132Z,0
2017-09-22T02:24:16.441Z,0
2017-09-22T02:25:17.319Z,0
2017-09-22T02:26:16.125Z,0
2017-09-22T02:27:16.426Z,0
2017-09-22T02:28:16.731Z,0
2017-09-22T02:29:16.421Z,0
2017-09-22T02:30:17.370Z,0
2017-09-22T02:31:18.226Z,0
2017-09-22T02:32:15.784Z,0
2017-09-22T02:33:16.717Z,0
2017-09-22T02:34:16.405Z,0
2017-09-22T02:35:18.121Z,0
2017-09-22T02:36:16.397Z,0
2017-09-22T02:37:16.388Z,0
2017-09-22T02:38:16.079Z,0
2017-09-22T02:39:16.071Z,0
2017-09-22T02:40:18.396Z,0
2017-09-22T02:41:16.381Z,0
2017-09-22T02:42:16.065Z,0
2017-09-22T02:43:16.370Z,0
2017-09-22T02:44:16.372Z,0
2017-09-22T02:45:16.694Z,0
2017-09-22T02:46:15.738Z,0
2017-09-22T02:47:16.352Z,0
2017-09-22T02:48:16.041Z,0
2017-09-22T02:49:16.345Z,0
2017-09-22T02:50:17.365Z,0
2017-09-22T02:51:16.678Z,0
2017-09-22T02:52:16.641Z,0
2017-09-22T02:53:16.021Z,0
2017-09-22T02:54:16.327Z,0
2017-09-22T02:55:17.221Z,0
2017-09-22T02:56:16.323Z,0
2017-09-22T02:57:16.629Z,0
2017-09-22T02:58:16.651Z,0
2017-09-22T02:59:16.639Z,0
2017-09-22T03:00:17.831Z,0
2017-09-22T03:01:16.000Z,0
2017-09-22T03:02:16.627Z,0
2017-09-22T03:03:15.980Z,0
2017-09-22T03:04:16.600Z,0
2017-09-22T03:05:17.618Z,0
2017-09-22T03:06:16.291Z,0
2017-09-22T03:07:15.965Z,0
2017-09-22T03:08:16.581Z,0
2017-09-22T03:09:16.273Z,0
2017-09-22T03:10:17.370Z,0
2017-09-22T03:11:16.576Z,0
2017-09-22T03:12:16.273Z,0
2017-09-22T03:13:16.558Z,0
2017-09-22T03:14:16.255Z,0
2017-09-22T03:15:17.778Z,0
2017-09-22T03:16:16.239Z,0
2017-09-22T03:17:16.249Z,0
2017-09-22T03:18:16.232Z,0
2017-09-22T03:19:16.542Z,0
2017-09-22T03:20:17.757Z,0
2017-09-22T03:21:16.526Z,0
2017-09-22T03:22:16.219Z,0
2017-09-22T03:23:16.528Z,0
2017-09-22T03:24:16.212Z,0
2017-09-22T03:25:17.993Z,0
2017-09-22T03:26:15.895Z,0
2017-09-22T03:27:15.893Z,0
2017-09-22T03:28:16.204Z,0
2017-09-22T03:29:15.892Z,0
2017-09-22T03:30:17.944Z,0
2017-09-22T03:31:16.181Z,0
2017-09-22T03:32:17.437Z,0
2017-09-22T03:33:16.483Z,0
2017-09-22T03:34:15.873Z,0
2017-09-22T03:35:17.369Z,0
2017-09-22T03:36:16.475Z,0
2017-09-22T03:37:15.552Z,0
2017-09-22T03:38:16.156Z,0
2017-09-22T03:39:16.156Z,0
2017-09-22T03:40:17.180Z,0
2017-09-22T03:41:16.154Z,0
2017-09-22T03:42:16.140Z,0
2017-09-22T03:43:16.441Z,0
2017-09-22T03:44:15.832Z,0
2017-09-22T03:45:17.386Z,0
2017-09-22T03:46:16.113Z,0
2017-09-22T03:47:16.106Z,0
2017-09-22T03:48:15.503Z,0
2017-09-22T03:49:16.099Z,0
2017-09-22T03:50:17.177Z,0
2017-09-22T03:51:16.100Z,0
2017-09-22T03:52:16.093Z,0
2017-09-22T03:53:16.084Z,0
2017-09-22T03:54:16.083Z,0
2017-09-22T03:55:17.529Z,0
2017-09-22T03:56:15.786Z,0
2017-09-22T03:57:16.068Z,0
2017-09-22T03:58:16.370Z,0
2017-09-22T03:59:16.359Z,0
2017-09-22T04:00:17.755Z,0
2017-09-22T04:01:16.356Z,0
2017-09-22T04:02:16.325Z,0
2017-09-22T04:03:15.726Z,0
2017-09-22T04:04:15.726Z,0
2017-09-22T04:05:17.226Z,0
2017-09-22T04:06:16.330Z,0
2017-09-22T04:07:16.028Z,0
2017-09-22T04:08:16.026Z,0
2017-09-22T04:09:16.049Z,0
2017-09-22T04:10:17.341Z,0
2017-09-22T04:11:15.994Z,0
2017-09-22T04:12:15.681Z,0
2017-09-22T04:13:15.384Z,0
2017-09-22T04:14:15.383Z,0
2017-09-22T04:15:17.715Z,0
2017-09-22T04:16:15.992Z,0
2017-09-22T04:17:17.223Z,0
2017-09-22T04:18:16.286Z,0
2017-09-22T04:19:15.660Z,0
2017-09-22T04:20:17.131Z,0
2017-09-22T04:21:15.948Z,0
2017-09-22T04:22:15.981Z,0
2017-09-22T04:23:15.640Z,0
2017-09-22T04:24:15.634Z,0
2017-09-22T04:25:17.002Z,0
2017-09-22T04:26:15.945Z,0
2017-09-22T04:27:16.238Z,0
2017-09-22T04:28:15.927Z,0
2017-09-22T04:29:15.915Z,0
2017-09-22T04:30:16.617Z,0
2017-09-22T04:31:15.895Z,0
2017-09-22T04:32:18.047Z,0
2017-09-22T04:33:15.593Z,0
2017-09-22T04:34:16.209Z,0
2017-09-22T04:35:17.589Z,0
2017-09-22T04:36:16.208Z,0
2017-09-22T04:37:15.918Z,0
2017-09-22T04:38:15.246Z,0
2017-09-22T04:39:15.874Z,4
2017-09-22T04:40:16.450Z,4
2017-09-22T04:41:16.172Z,4
2017-09-22T04:42:16.177Z,0
2017-09-22T04:43:15.838Z,4
2017-09-22T04:44:15.841Z,4
2017-09-22T04:45:16.909Z,4
2017-09-22T04:46:16.158Z,8
2017-09-22T04:47:15.507Z,8
2017-09-22T04:48:15.820Z,8
2017-09-22T04:49:15.499Z,8
2017-09-22T04:50:16.930Z,12
2017-09-22T04:51:15.495Z,16
2017-09-22T04:52:15.489Z,16
2017-09-22T04:53:15.477Z,20
2017-09-22T04:54:15.804Z,20
2017-09-22T04:55:17.037Z,28
2017-09-22T04:56:15.793Z,32
2017-09-22T04:57:15.477Z,40
2017-09-22T04:58:15.454Z,44
2017-09-22T04:59:15.756Z,52
2017-09-22T05:00:16.010Z,60
2017-09-22T05:01:15.754Z,68
2017-09-22T05:02:15.762Z,84
2017-09-22T05:03:15.768Z,92
2017-09-22T05:04:15.433Z,104
2017-09-22T05:05:16.176Z,112
2017-09-22T05:06:15.422Z,128
2017-09-22T05:07:15.727Z,144
2017-09-22T05:08:16.035Z,160
2017-09-22T05:09:15.717Z,180
2017-09-22T05:10:17.033Z,200
2017-09-22T05:11:15.699Z,216
2017-09-22T05:12:15.693Z,236
2017-09-22T05:13:15.384Z,260
2017-09-22T05:14:15.707Z,288
2017-09-22T05:15:17.729Z,312
2017-09-22T05:16:15.381Z,336
2017-09-22T05:17:15.982Z,360
2017-09-22T05:18:15.671Z,388
2017-09-22T05:19:15.998Z,416
2017-09-22T05:20:17.259Z,448
2017-09-22T05:21:15.378Z,480
2017-09-22T05:22:15.970Z,508
2017-09-22T05:23:15.964Z,540
2017-09-22T05:24:15.968Z,568
2017-09-22T05:25:16.973Z,604
2017-09-22T05:26:15.324Z,636
2017-09-22T05:27:15.640Z,672
2017-09-22T05:28:15.948Z,708
2017-09-22T05:29:15.965Z,744
2017-09-22T05:30:17.292Z,788
2017-09-22T05:31:15.609Z,828
2017-09-22T05:32:15.602Z,876
2017-09-22T05:33:16.790Z,920
2017-09-22T05:34:15.600Z,972
2017-09-22T05:35:16.547Z,1024
2017-09-22T05:36:15.584Z,1084
2017-09-22T05:37:15.274Z,1136
2017-09-22T05:38:15.891Z,1188
2017-09-22T05:39:15.272Z,1236
2017-09-22T05:40:17.119Z,1280
2017-09-22T05:41:15.559Z,1348
2017-09-22T05:42:15.554Z,1412
2017-09-22T05:43:15.550Z,1472
2017-09-22T05:44:15.245Z,1528
2017-09-22T05:45:16.935Z,1592
2017-09-22T05:46:15.545Z,1668
2017-09-22T05:47:15.225Z,1736
2017-09-22T05:48:17.686Z,1832
2017-09-22T05:49:15.831Z,1908
2017-09-22T05:50:16.200Z,2000
2017-09-22T05:51:15.839Z,2084
2017-09-22T05:52:15.505Z,2180
2017-09-22T05:53:15.814Z,2280
2017-09-22T05:54:15.499Z,2376
2017-09-22T05:55:17.024Z,2472
2017-09-22T05:56:15.486Z,2540
2017-09-22T05:57:15.482Z,2552
2017-09-22T05:58:15.793Z,2584
2017-09-22T05:59:15.166Z,2688
2017-09-22T06:00:16.838Z,2656
2017-09-22T06:01:15.158Z,2756
2017-09-22T06:02:15.465Z,2852
2017-09-22T06:03:18.968Z,3148
2017-09-22T06:04:15.146Z,3328
2017-09-22T06:05:16.878Z,3392
2017-09-22T06:06:15.753Z,3444
2017-09-22T06:07:15.453Z,3444
2017-09-22T06:08:15.758Z,3472
2017-09-22T06:09:15.433Z,3632
2017-09-22T06:10:16.536Z,3740
2017-09-22T06:11:15.438Z,3816
2017-09-22T06:12:15.755Z,3924
2017-09-22T06:13:15.751Z,4012
2017-09-22T06:14:15.432Z,4080
2017-09-22T06:15:16.939Z,4148
2017-09-22T06:16:15.104Z,4204
2017-09-22T06:17:14.791Z,4248
2017-09-22T06:18:15.406Z,4264
2017-09-22T06:19:15.404Z,4184
2017-09-22T06:20:16.611Z,4336
2017-09-22T06:21:15.394Z,4384
2017-09-22T06:22:15.094Z,4380
2017-09-22T06:23:15.707Z,4324
2017-09-22T06:24:15.094Z,3972
2017-09-22T06:25:16.245Z,3936
2017-09-22T06:26:15.403Z,3620
2017-09-22T06:27:14.786Z,3584
2017-09-22T06:28:15.700Z,3572
2017-09-22T06:29:15.066Z,3564
2017-09-22T06:30:16.541Z,3552
2017-09-22T06:31:15.374Z,3556
2017-09-22T06:32:15.373Z,3572
2017-09-22T06:33:15.382Z,3588
2017-09-22T06:34:17.746Z,3604
2017-09-22T06:35:16.409Z,3628
2017-09-22T06:36:15.681Z,3652
2017-09-22T06:37:15.667Z,3676
2017-09-22T06:38:15.356Z,3704
2017-09-22T06:39:15.356Z,3724
2017-09-22T06:40:16.628Z,3752
2017-09-22T06:41:15.668Z,3776
2017-09-22T06:42:15.663Z,3796
2017-09-22T06:43:15.048Z,3824
2017-09-22T06:44:15.037Z,3836
2017-09-22T06:45:17.283Z,3848
2017-09-22T06:46:14.733Z,3868
2017-09-22T06:47:15.347Z,3888
2017-09-22T06:48:15.028Z,3908
2017-09-22T06:49:15.646Z,3936
2017-09-22T06:50:16.696Z,3960
2017-09-22T06:51:15.652Z,3968
2017-09-22T06:52:15.628Z,3972
2017-09-22T06:53:15.339Z,3972
2017-09-22T06:54:15.014Z,3964
2017-09-22T06:55:16.997Z,3952
2017-09-22T06:56:15.632Z,3948
2017-09-22T06:57:15.325Z,3944
2017-09-22T06:58:15.643Z,3944
2017-09-22T06:59:15.312Z,3952
2017-09-22T07:00:16.909Z,3968
2017-09-22T07:01:15.622Z,3992
2017-09-22T07:02:15.616Z,4016
2017-09-22T07:03:15.286Z,4052
2017-09-22T07:04:20.859Z,4100
2017-09-22T07:05:16.014Z,4148
2017-09-22T07:06:14.970Z,4188
2017-09-22T07:07:15.280Z,4228
2017-09-22T07:08:15.580Z,4268
2017-09-22T07:09:15.282Z,4324
2017-09-22T07:10:15.676Z,4368
2017-09-22T07:11:15.265Z,4416
2017-09-22T07:12:14.964Z,4428
2017-09-22T07:13:15.262Z,4456
2017-09-22T07:14:15.256Z,4484
2017-09-22T07:15:16.436Z,4508
2017-09-22T07:16:15.566Z,4524
2017-09-22T07:17:14.633Z,4540
2017-09-22T07:18:15.248Z,4564
2017-09-22T07:19:15.530Z,4600
2017-09-22T07:20:16.803Z,4648
2017-09-22T07:21:15.557Z,4584
2017-09-22T07:22:14.925Z,4572
2017-09-22T07:23:15.553Z,4644
2017-09-22T07:24:14.927Z,4908
2017-09-22T07:25:15.875Z,6216
2017-09-22T07:26:14.915Z,5556
2017-09-22T07:27:15.229Z,6096
2017-09-22T07:28:15.534Z,6064
2017-09-22T07:29:15.547Z,5924
2017-09-22T07:30:16.071Z,5852
2017-09-22T07:31:15.574Z,5480
2017-09-22T07:32:15.222Z,5540
2017-09-22T07:33:15.220Z,5260
2017-09-22T07:34:15.217Z,5276
2017-09-22T07:35:16.515Z,5264
2017-09-22T07:36:15.539Z,5384
2017-09-22T07:37:15.531Z,5352
2017-09-22T07:38:15.537Z,5576
2017-09-22T07:39:15.524Z,5644
2017-09-22T07:40:16.047Z,5908
2017-09-22T07:41:15.213Z,6900
2017-09-22T07:42:15.517Z,6368
2017-09-22T07:43:15.523Z,6388
2017-09-22T07:44:14.910Z,6884
2017-09-22T07:45:16.519Z,6408
2017-09-22T07:46:15.530Z,6380
2017-09-22T07:47:15.210Z,6256
2017-09-22T07:48:15.528Z,6212
2017-09-22T07:49:14.897Z,5976
2017-09-22T07:50:16.406Z,5772
2017-09-22T07:51:15.208Z,5752
2017-09-22T07:52:15.212Z,5792
2017-09-22T07:53:15.203Z,5724
2017-09-22T07:54:15.209Z,5708
2017-09-22T07:55:16.027Z,5620
2017-09-22T07:56:15.203Z,5956
2017-09-22T07:57:15.227Z,6608
2017-09-22T07:58:14.899Z,6756
2017-09-22T07:59:15.213Z,8056
2017-09-22T08:00:16.452Z,9172
2017-09-22T08:01:15.525Z,8444
2017-09-22T08:02:14.583Z,9452
2017-09-22T08:03:14.893Z,9332
2017-09-22T08:04:15.537Z,9216
2017-09-22T08:05:19.259Z,9212
2017-09-22T08:06:14.913Z,9128
2017-09-22T08:07:14.900Z,9060
2017-09-22T08:08:15.213Z,8968
2017-09-22T08:09:15.218Z,8752
2017-09-22T08:10:17.235Z,8660
2017-09-22T08:11:15.217Z,8620
2017-09-22T08:12:15.219Z,8508
2017-09-22T08:13:15.236Z,8432
2017-09-22T08:14:15.537Z,8400
2017-09-22T08:15:17.748Z,8348
2017-09-22T08:16:15.234Z,8728
2017-09-22T08:17:15.555Z,8916
2017-09-22T08:18:15.239Z,8964
2017-09-22T08:19:14.938Z,8996
2017-09-22T08:20:16.230Z,9052
2017-09-22T08:21:14.938Z,9092
2017-09-22T08:22:14.944Z,9148
2017-09-22T08:23:15.560Z,9208
2017-09-22T08:24:15.264Z,9280
2017-09-22T08:25:16.644Z,9020
2017-09-22T08:26:15.257Z,9044
2017-09-22T08:27:15.277Z,6724
2017-09-22T08:28:15.269Z,6348
2017-09-22T08:29:15.583Z,7604
2017-09-22T08:30:16.789Z,9820
2017-09-22T08:31:14.962Z,9836
2017-09-22T08:32:14.961Z,10080
2017-09-22T08:33:14.975Z,10256
2017-09-22T08:34:15.578Z,10436
2017-09-22T08:35:17.535Z,10664
2017-09-22T08:36:14.982Z,10824
2017-09-22T08:37:15.589Z,10980
2017-09-22T08:38:14.673Z,11064
2017-09-22T08:39:15.280Z,11172
2017-09-22T08:40:16.416Z,10436
2017-09-22T08:41:14.985Z,10236
2017-09-22T08:42:15.605Z,8048
2017-09-22T08:43:14.986Z,8924
2017-09-22T08:44:15.292Z,7892
2017-09-22T08:45:15.889Z,7596
2017-09-22T08:46:15.026Z,7772
2017-09-22T08:47:14.989Z,7468
2017-09-22T08:48:15.000Z,10556
2017-09-22T08:49:15.299Z,8872
2017-09-22T08:50:17.289Z,8184
2017-09-22T08:51:15.612Z,7192
2017-09-22T08:52:15.303Z,8628
2017-09-22T08:53:15.317Z,7076
2017-09-22T08:54:15.005Z,6912
2017-09-22T08:55:15.710Z,10524
2017-09-22T08:56:15.005Z,8984
2017-09-22T08:57:15.658Z,9312
2017-09-22T08:58:15.312Z,7232
2017-09-22T08:59:15.622Z,6888
2017-09-22T09:00:16.697Z,8816
2017-09-22T09:01:15.006Z,8284
2017-09-22T09:02:15.633Z,9128
2017-09-22T09:03:15.016Z,10060
2017-09-22T09:04:15.633Z,10080
2017-09-22T09:05:16.207Z,9912
2017-09-22T09:06:16.394Z,9872
2017-09-22T09:07:15.657Z,9708
2017-09-22T09:08:15.020Z,9784
2017-09-22T09:09:15.640Z,9740
2017-09-22T09:10:16.832Z,9656
2017-09-22T09:11:14.718Z,9612
2017-09-22T09:12:15.338Z,9048
2017-09-22T09:13:15.346Z,7668
2017-09-22T09:14:15.038Z,6524
2017-09-22T09:15:16.703Z,5316
2017-09-22T09:16:15.035Z,5984
2017-09-22T09:17:15.664Z,5208
2017-09-22T09:18:15.664Z,5320
2017-09-22T09:19:15.357Z,4896
2017-09-22T09:20:16.948Z,4952
2017-09-22T09:21:15.659Z,8672
2017-09-22T09:22:15.361Z,8656
2017-09-22T09:23:15.678Z,5836
2017-09-22T09:24:15.368Z,7916
2017-09-22T09:25:16.814Z,8216
2017-09-22T09:26:15.692Z,8456
2017-09-22T09:27:15.365Z,8392
2017-09-22T09:28:15.680Z,8348
2017-09-22T09:29:15.379Z,8316
2017-09-22T09:30:16.682Z,8304
2017-09-22T09:31:15.381Z,8292
2017-09-22T09:32:15.385Z,8280
2017-09-22T09:33:15.702Z,8268
2017-09-22T09:34:15.702Z,8268
2017-09-22T09:35:15.958Z,8244
2017-09-22T09:36:18.527Z,8136
2017-09-22T09:37:15.387Z,7868
2017-09-22T09:38:15.385Z,7872
2017-09-22T09:39:14.784Z,7824
2017-09-22T09:40:16.157Z,7828
2017-09-22T09:41:15.700Z,7768
2017-09-22T09:42:15.388Z,7820
2017-09-22T09:43:15.710Z,7860
2017-09-22T09:44:15.095Z,7852
2017-09-22T09:45:16.360Z,7884
2017-09-22T09:46:15.411Z,7968
2017-09-22T09:47:15.707Z,7940
2017-09-22T09:48:15.100Z,7908
2017-09-22T09:49:15.401Z,7940
2017-09-22T09:50:16.311Z,8092
2017-09-22T09:51:15.104Z,8088
2017-09-22T09:52:15.411Z,8032
2017-09-22T09:53:15.406Z,7904
2017-09-22T09:54:15.105Z,7800
2017-09-22T09:55:16.297Z,8144
2017-09-22T09:56:15.423Z,8100
2017-09-22T09:57:15.414Z,7952
2017-09-22T09:58:15.422Z,7712
2017-09-22T09:59:15.427Z,7468
2017-09-22T10:00:17.176Z,7420
2017-09-22T10:01:15.424Z,7308
2017-09-22T10:02:15.434Z,7580
2017-09-22T10:03:15.559Z,7768
2017-09-22T10:04:15.428Z,7760
2017-09-22T10:05:16.240Z,7820
2017-09-22T10:06:15.429Z,7800
2017-09-22T10:07:15.741Z,7768
2017-09-22T10:08:15.441Z,7716
2017-09-22T10:09:15.482Z,7696
2017-09-22T10:10:17.344Z,7640
2017-09-22T10:11:14.829Z,7612
2017-09-22T10:12:15.757Z,7572
2017-09-22T10:13:15.146Z,7540
2017-09-22T10:14:15.143Z,7496
2017-09-22T10:15:16.623Z,7436
2017-09-22T10:16:15.450Z,7400
2017-09-22T10:17:15.450Z,7340
2017-09-22T10:18:15.148Z,7208
2017-09-22T10:19:15.773Z,7256
2017-09-22T10:20:17.300Z,7232
2017-09-22T10:21:15.175Z,6928
2017-09-22T10:22:15.786Z,7044
2017-09-22T10:23:15.472Z,6716
2017-09-22T10:24:15.786Z,6628
2017-09-22T10:25:17.488Z,6824
2017-09-22T10:26:15.774Z,6520
2017-09-22T10:27:15.787Z,6096
2017-09-22T10:28:15.474Z,5972
2017-09-22T10:29:15.484Z,5932
2017-09-22T10:30:16.686Z,6160
2017-09-22T10:31:15.786Z,5952
2017-09-22T10:32:15.788Z,5956
2017-09-22T10:33:14.876Z,5884
2017-09-22T10:34:15.490Z,6824
2017-09-22T10:35:17.694Z,6472
2017-09-22T10:36:15.810Z,6896
2017-09-22T10:37:15.433Z,7000
2017-09-22T10:38:15.497Z,7020
2017-09-22T10:39:15.812Z,7008
2017-09-22T10:40:17.152Z,6952
2017-09-22T10:41:15.499Z,6920
2017-09-22T10:42:15.522Z,6816
2017-09-22T10:43:15.203Z,6812
2017-09-22T10:44:15.515Z,6840
2017-09-22T10:45:17.166Z,6796
2017-09-22T10:46:15.514Z,6784
2017-09-22T10:47:15.675Z,6840
2017-09-22T10:48:15.533Z,6892
2017-09-22T10:49:15.215Z,6920
2017-09-22T10:50:17.505Z,6924
2017-09-22T10:51:15.529Z,6860
2017-09-22T10:52:20.321Z,6764
2017-09-22T10:53:15.211Z,6796
2017-09-22T10:54:15.837Z,6928
2017-09-22T10:55:17.085Z,6948
2017-09-22T10:56:15.839Z,6884
2017-09-22T10:57:15.549Z,6884
2017-09-22T10:58:15.538Z,6876
2017-09-22T10:59:15.233Z,6840
2017-09-22T11:00:17.833Z,6700
2017-09-22T11:01:15.238Z,6852
2017-09-22T11:02:15.855Z,6820
2017-09-22T11:03:15.548Z,6728
2017-09-22T11:04:15.584Z,6540
2017-09-22T11:05:17.824Z,5492
2017-09-22T11:06:15.871Z,4468
2017-09-22T11:07:16.362Z,4164
2017-09-22T11:08:15.246Z,4704
2017-09-22T11:09:15.250Z,6300
2017-09-22T11:10:17.184Z,6544
2017-09-22T11:11:15.560Z,6568
2017-09-22T11:12:15.577Z,6556
2017-09-22T11:13:15.561Z,6548
2017-09-22T11:14:15.885Z,6540
2017-09-22T11:15:16.950Z,6512
2017-09-22T11:16:15.577Z,6460
2017-09-22T11:17:15.571Z,6416
2017-09-22T11:18:15.265Z,5728
2017-09-22T11:19:15.265Z,5952
2017-09-22T11:20:17.587Z,6104
2017-09-22T11:21:15.899Z,6228
2017-09-22T11:22:15.891Z,6192
2017-09-22T11:23:15.285Z,6180
2017-09-22T11:24:15.593Z,6160
2017-09-22T11:25:17.006Z,6132
2017-09-22T11:26:15.600Z,6088
2017-09-22T11:27:15.600Z,6044
2017-09-22T11:28:15.304Z,6020
2017-09-22T11:29:15.302Z,6020
2017-09-22T11:30:16.359Z,5996
2017-09-22T11:31:15.913Z,5964
2017-09-22T11:32:15.613Z,5608
2017-09-22T11:33:15.621Z,5592
2017-09-22T11:34:15.614Z,5536
2017-09-22T11:35:17.228Z,5840
2017-09-22T11:36:15.307Z,5816
2017-09-22T11:37:15.316Z,5552
2017-09-22T11:38:15.320Z,5484
2017-09-22T11:39:15.624Z,5636
2017-09-22T11:40:16.639Z,5620
2017-09-22T11:41:15.331Z,5692
2017-09-22T11:42:15.627Z,5684
2017-09-22T11:43:15.323Z,5672
2017-09-22T11:44:15.637Z,5676
2017-09-22T11:45:16.409Z,4676
2017-09-22T11:46:15.035Z,4604
2017-09-22T11:47:15.335Z,3972
2017-09-22T11:48:15.972Z,4192
2017-09-22T11:49:15.647Z,4196
2017-09-22T11:50:16.281Z,5416
2017-09-22T11:51:16.006Z,5596
2017-09-22T11:52:15.037Z,5604
2017-09-22T11:53:15.086Z,5544
2017-09-22T11:54:15.965Z,5556
2017-09-22T11:55:17.123Z,5544
2017-09-22T11:56:15.360Z,5488
2017-09-22T11:57:15.679Z,5492
2017-09-22T11:58:15.664Z,5484
2017-09-22T11:59:15.675Z,5480
2017-09-22T12:00:16.786Z,5264
2017-09-22T12:01:15.988Z,4812
2017-09-22T12:02:15.677Z,5432
2017-09-22T12:03:15.678Z,4900
2017-09-22T12:04:15.996Z,4548
2017-09-22T12:05:17.457Z,4672
2017-09-22T12:06:15.687Z,4984
2017-09-22T12:07:15.708Z,5188
2017-09-22T12:08:17.001Z,5400
2017-09-22T12:09:15.697Z,5396
2017-09-22T12:10:17.010Z,5384
2017-09-22T12:11:15.699Z,5392
2017-09-22T12:12:15.081Z,5380
2017-09-22T12:13:15.711Z,5424
2017-09-22T12:14:16.021Z,5432
2017-09-22T12:15:16.939Z,5440
2017-09-22T12:16:15.709Z,5412
2017-09-22T12:17:16.023Z,5380
2017-09-22T12:18:15.725Z,5348
2017-09-22T12:19:15.725Z,5304
2017-09-22T12:20:16.867Z,5240
2017-09-22T12:21:16.042Z,5160
2017-09-22T12:22:15.424Z,5100
2017-09-22T12:23:16.081Z,5044
2017-09-22T12:24:16.038Z,5084
2017-09-22T12:25:16.811Z,5116
2017-09-22T12:26:15.734Z,5096
2017-09-22T12:27:15.743Z,5096
2017-09-22T12:28:15.740Z,5084
2017-09-22T12:29:15.752Z,5064
2017-09-22T12:30:16.867Z,5040
2017-09-22T12:31:15.762Z,5024
2017-09-22T12:32:16.072Z,5020
2017-09-22T12:33:15.443Z,5000
2017-09-22T12:34:16.094Z,4972
2017-09-22T12:35:16.596Z,4956
2017-09-22T12:36:16.088Z,4940
2017-09-22T12:37:15.143Z,4932
2017-09-22T12:38:16.950Z,4912
2017-09-22T12:39:16.086Z,4900
2017-09-22T12:40:16.910Z,4884
2017-09-22T12:41:16.107Z,4864
2017-09-22T12:42:15.809Z,4848
2017-09-22T12:43:15.488Z,4832
2017-09-22T12:44:15.828Z,4812
2017-09-22T12:45:16.938Z,4800
2017-09-22T12:46:15.807Z,4796
2017-09-22T12:47:15.493Z,4788
2017-09-22T12:48:15.496Z,4780
2017-09-22T12:49:15.813Z,4768
2017-09-22T12:50:18.057Z,4764
2017-09-22T12:51:15.505Z,4760
2017-09-22T12:52:15.816Z,4740
2017-09-22T12:53:15.813Z,4736
2017-09-22T12:54:15.808Z,4740
2017-09-22T12:55:17.094Z,4728
2017-09-22T12:56:15.834Z,4716
2017-09-22T12:57:15.840Z,4700
2017-09-22T12:58:15.837Z,4692
2017-09-22T12:59:16.167Z,4680
2017-09-22T13:00:17.355Z,4684
2017-09-22T13:01:15.527Z,4672
2017-09-22T13:02:16.168Z,4668
2017-09-22T13:03:15.848Z,4652
2017-09-22T13:04:15.530Z,4636
2017-09-22T13:05:16.916Z,4624
2017-09-22T13:06:16.163Z,4644
2017-09-22T13:07:15.842Z,4668
2017-09-22T13:08:15.861Z,4672
2017-09-22T13:09:15.550Z,4668
2017-09-22T13:10:17.126Z,4668
2017-09-22T13:11:15.856Z,4660
2017-09-22T13:12:16.178Z,4656
2017-09-22T13:13:15.863Z,4656
2017-09-22T13:14:16.179Z,4652
2017-09-22T13:15:17.559Z,4660
2017-09-22T13:16:16.179Z,4660
2017-09-22T13:17:15.566Z,4668
2017-09-22T13:18:15.883Z,4668
2017-09-22T13:19:15.570Z,4676
2017-09-22T13:20:16.554Z,4672
2017-09-22T13:21:15.907Z,4684
2017-09-22T13:22:16.219Z,4688
2017-09-22T13:23:16.226Z,4664
2017-09-22T13:24:15.899Z,4580
2017-09-22T13:25:16.866Z,4580
2017-09-22T13:26:15.900Z,4716
2017-09-22T13:27:16.247Z,4732
2017-09-22T13:28:15.918Z,4748
2017-09-22T13:29:15.922Z,4764
2017-09-22T13:30:17.509Z,4776
2017-09-22T13:31:15.630Z,4788
2017-09-22T13:32:15.620Z,4780
2017-09-22T13:33:15.928Z,4720
2017-09-22T13:34:15.309Z,4204
2017-09-22T13:35:17.603Z,4684
2017-09-22T13:36:15.937Z,4760
2017-09-22T13:37:16.296Z,4616
2017-09-22T13:38:15.959Z,4816
2017-09-22T13:39:16.774Z,4940
2017-09-22T13:40:16.698Z,4944
2017-09-22T13:41:16.281Z,4940
2017-09-22T13:42:15.644Z,4940
2017-09-22T13:43:15.959Z,4920
2017-09-22T13:44:15.702Z,4860
2017-09-22T13:45:17.047Z,4768
2017-09-22T13:46:16.281Z,4788
2017-09-22T13:47:15.962Z,4820
2017-09-22T13:48:15.985Z,4808
2017-09-22T13:49:15.975Z,4784
2017-09-22T13:50:17.624Z,4752
2017-09-22T13:51:16.293Z,4740
2017-09-22T13:52:15.658Z,4728
2017-09-22T13:53:15.995Z,4744
2017-09-22T13:54:16.001Z,4708
2017-09-22T13:55:17.574Z,4696
2017-09-22T13:56:15.675Z,4672
2017-09-22T13:57:16.015Z,4668
2017-09-22T13:58:15.683Z,4664
2017-09-22T13:59:15.691Z,4656
2017-09-22T14:00:16.782Z,4660